Time,TemperatureF,DewpointF,PressureIn,WindDirection,WindDirectionDegrees,WindSpeedMPH,WindSpeedGustMPH,Humidity,HourlyPrecipIn,Conditions,Clouds,dailyrainin,SoftwareType,DateUTC
2013-10-22 00:13:00,43.0,30.0,30.04,SW,230,3.0,-999.0,60,-99.99,,,-99.99,,2013-10-22 05:13:00,
2013-10-22 00:22:00,39.0,30.0,30.04,North,0,0.0,-999.0,69,-99.99,,,-99.99,,2013-10-22 05:22:00,
2013-10-22 00:52:00,39.0,32.0,30.04,North,0,0.0,-999.0,75,-99.99,,,-99.99,,2013-10-22 05:52:00,
2013-10-22 01:12:00,39.0,32.0,30.04,North,0,0.0,-999.0,75,-99.99,,,-99.99,,2013-10-22 06:12:00,
2013-10-22 01:22:00,39.0,32.0,30.04,North,0,0.0,-999.0,75,-99.99,,,-99.99,,2013-10-22 06:22:00,
2013-10-22 01:54:00,39.0,32.0,30.03,North,0,0.0,-999.0,75,-99.99,,,-99.99,,2013-10-22 06:54:00,
2013-10-22 02:02:00,39.0,32.0,30.03,North,0,0.0,-999.0,75,-99.99,,,-99.99,,2013-10-22 07:02:00,
2013-10-22 02:12:00,39.0,32.0,30.03,North,0,0.0,-999.0,75,-99.99,,,-99.99,,2013-10-22 07:12:00,
2013-10-22 02:22:00,37.0,34.0,30.03,North,0,0.0,-999.0,86,-99.99,,,-99.99,,2013-10-22 07:22:00,
2013-10-22 02:52:00,36.0,32.0,30.03,SSE,160,6.0,-999.0,86,-99.99,,,-99.99,,2013-10-22 07:52:00,
2013-10-22 03:12:00,36.0,32.0,30.03,SSE,160,5.0,-999.0,86,-99.99,,,-99.99,,2013-10-22 08:12:00,
2013-10-22 03:22:00,37.0,32.0,30.03,South,170,6.0,-999.0,80,-99.99,,,-99.99,,2013-10-22 08:22:00,
2013-10-22 03:52:00,37.0,32.0,30.01,South,170,5.0,-999.0,80,-99.99,,,-99.99,,2013-10-22 08:52:00,
2013-10-22 04:11:00,37.0,32.0,30.01,South,180,6.0,-999.0,80,-99.99,,,-99.99,,2013-10-22 09:11:00,
2013-10-22 04:21:00,37.0,32.0,30.01,South,180,6.0,-999.0,80,-99.99,,,-99.99,,2013-10-22 09:21:00,
2013-10-22 04:54:00,39.0,34.0,30.00,SSW,200,3.0,-999.0,80,-99.99,,,-99.99,,2013-10-22 09:54:00,
2013-10-22 05:13:00,39.0,34.0,30.00,South,180,5.0,-999.0,80,-99.99,,,-99.99,,2013-10-22 10:13:00,
2013-10-22 05:23:00,39.0,32.0,29.99,SSE,160,5.0,-999.0,75,-99.99,,,-99.99,,2013-10-22 10:23:00,
2013-10-22 05:53:00,39.0,32.0,29.99,SSE,160,5.0,-999.0,75,-99.99,,,-99.99,,2013-10-22 10:53:00,
2013-10-22 06:12:00,41.0,32.0,29.98,SSE,160,5.0,-999.0,70,-99.99,,,-99.99,,2013-10-22 11:12:00,
2013-10-22 06:22:00,41.0,32.0,29.97,SSE,160,6.0,-999.0,70,-99.99,,,-99.99,,2013-10-22 11:22:00,
2013-10-22 06:53:00,41.0,32.0,29.97,South,170,6.0,-999.0,70,-99.99,,,-99.99,,2013-10-22 11:53:00,
2013-10-22 07:11:00,41.0,32.0,29.96,SSE,160,7.0,-999.0,70,-99.99,,,-99.99,,2013-10-22 12:11:00,
2013-10-22 07:22:00,41.0,32.0,29.94,SSE,160,7.0,-999.0,70,-99.99,,,-99.99,,2013-10-22 12:22:00,
2013-10-22 07:52:00,41.0,32.0,29.93,SSE,160,7.0,-999.0,70,-99.99,,,-99.99,,2013-10-22 12:52:00,
2013-10-22 08:11:00,41.0,32.0,29.93,SSE,160,8.0,-999.0,70,-99.99,,,-99.99,,2013-10-22 13:11:00,
2013-10-22 08:21:00,43.0,34.0,29.91,SSE,150,8.0,-999.0,70,-99.99,,,-99.99,,2013-10-22 13:21:00,
2013-10-22 08:53:00,43.0,34.0,29.90,SSE,150,8.0,-999.0,70,-99.99,,,-99.99,,2013-10-22 13:53:00,
2013-10-22 09:11:00,45.0,34.0,29.90,SSE,160,8.0,-999.0,65,-99.99,,,-99.99,,2013-10-22 14:11:00,
2013-10-22 09:21:00,45.0,36.0,29.91,South,180,6.0,-999.0,70,-99.99,,,-99.99,,2013-10-22 14:21:00,
2013-10-22 09:52:00,45.0,37.0,29.90,South,190,7.0,-999.0,75,-99.99,,,-99.99,,2013-10-22 14:52:00,
2013-10-22 10:12:00,45.0,37.0,29.90,South,180,9.0,-999.0,75,0.01,,,-99.99,,2013-10-22 15:12:00,
2013-10-22 10:22:00,45.0,37.0,29.89,South,170,9.0,-999.0,75,0.01,,,-99.99,,2013-10-22 15:22:00,
2013-10-22 10:54:00,46.0,39.0,29.88,SSW,200,10.0,-999.0,75,0.01,,,-99.99,,2013-10-22 15:54:00,
2013-10-22 11:04:00,46.0,39.0,29.88,SSW,200,10.0,-999.0,75,0.01,,,-99.99,,2013-10-22 16:04:00,
2013-10-22 11:13:00,46.0,39.0,29.88,SSW,200,10.0,-999.0,75,0.01,,,-99.99,,2013-10-22 16:13:00,
2013-10-22 11:23:00,48.0,41.0,29.87,SSW,200,12.0,-999.0,76,-99.99,,,-99.99,,2013-10-22 16:23:00,
2013-10-22 11:53:00,48.0,41.0,29.86,SSW,210,10.0,18.0,76,-99.99,,,-99.99,,2013-10-22 16:53:00,
2013-10-22 12:12:00,50.0,41.0,29.86,SSW,210,8.0,-999.0,71,-99.99,,,-99.99,,2013-10-22 17:12:00,
2013-10-22 12:22:00,52.0,43.0,29.84,SSW,210,12.0,17.0,71,-99.99,,,-99.99,,2013-10-22 17:22:00,
2013-10-22 13:52:00,59.0,39.0,29.81,WSW,250,12.0,-999.0,47,-99.99,,,-99.99,,2013-10-22 18:52:00,
2013-10-22 14:12:00,59.0,39.0,29.80,West,260,12.0,17.0,47,-99.99,,,-99.99,,2013-10-22 19:12:00,
2013-10-22 14:22:00,57.0,39.0,29.80,West,270,13.0,17.0,50,-99.99,,,-99.99,,2013-10-22 19:22:00,
2013-10-22 14:53:00,55.0,41.0,29.81,NNW,330,13.0,-999.0,58,-99.99,,,-99.99,,2013-10-22 19:53:00,
2013-10-22 15:11:00,55.0,41.0,29.80,NNW,340,13.0,-999.0,58,-99.99,,,-99.99,,2013-10-22 20:11:00,
2013-10-22 15:22:00,59.0,41.0,29.81,NW,310,17.0,22.0,51,-99.99,,,-99.99,,2013-10-22 20:22:00,
2013-10-22 15:52:00,57.0,39.0,29.83,NW,310,17.0,27.0,50,-99.99,,,-99.99,,2013-10-22 20:52:00,
2013-10-22 16:12:00,55.0,37.0,29.84,NW,310,23.0,33.0,50,-99.99,,,-99.99,,2013-10-22 21:12:00,
2013-10-22 16:23:00,54.0,39.0,29.85,NW,320,21.0,29.0,58,-99.99,,,-99.99,,2013-10-22 21:23:00,
2013-10-22 16:54:00,52.0,39.0,29.87,NW,320,18.0,25.0,61,-99.99,,,-99.99,,2013-10-22 21:54:00,
2013-10-22 17:14:00,52.0,39.0,29.87,NW,320,20.0,29.0,61,-99.99,,,-99.99,,2013-10-22 22:14:00,
2013-10-22 17:24:00,48.0,39.0,29.89,NW,320,15.0,24.0,70,-99.99,,,-99.99,,2013-10-22 22:24:00,
2013-10-22 17:54:00,48.0,37.0,29.91,NW,320,17.0,28.0,66,-99.99,,,-99.99,,2013-10-22 22:54:00,
2013-10-22 18:12:00,46.0,36.0,29.91,NW,320,14.0,30.0,65,-99.99,,,-99.99,,2013-10-22 23:12:00,
2013-10-22 18:23:00,46.0,36.0,29.92,NW,320,17.0,27.0,65,-99.99,,,-99.99,,2013-10-22 23:23:00,
2013-10-22 18:53:00,45.0,34.0,29.95,NW,320,17.0,23.0,65,-99.99,,,-99.99,,2013-10-22 23:53:00,
2013-10-22 19:11:00,43.0,34.0,29.96,NNW,330,13.0,23.0,70,-99.99,,,-99.99,,2013-10-23 00:11:00,
2013-10-22 19:22:00,43.0,34.0,29.97,NNW,340,15.0,25.0,70,-99.99,,,-99.99,,2013-10-23 00:22:00,
2013-10-22 19:52:00,43.0,34.0,29.98,NNW,340,12.0,20.0,70,-99.99,,,-99.99,,2013-10-23 00:52:00,
2013-10-22 20:11:00,43.0,34.0,29.99,NNW,330,16.0,20.0,70,-99.99,,,-99.99,,2013-10-23 01:11:00,
2013-10-22 20:23:00,41.0,32.0,30.00,NNW,330,15.0,20.0,70,-99.99,,,-99.99,,2013-10-23 01:23:00,
2013-10-22 20:52:00,41.0,34.0,30.01,NNW,340,9.0,20.0,75,-99.99,,,-99.99,,2013-10-23 01:52:00,
2013-10-22 21:11:00,41.0,34.0,30.01,NNW,330,13.0,22.0,75,-99.99,,,-99.99,,2013-10-23 02:11:00,
2013-10-22 21:22:00,41.0,32.0,30.01,NNW,340,10.0,16.0,70,-99.99,,,-99.99,,2013-10-23 02:22:00,
2013-10-22 21:54:00,41.0,34.0,30.02,NNW,330,12.0,18.0,75,-99.99,,,-99.99,,2013-10-23 02:54:00,
2013-10-22 22:11:00,41.0,34.0,30.02,NNW,340,10.0,17.0,75,-99.99,,,-99.99,,2013-10-23 03:11:00,
2013-10-22 22:22:00,41.0,34.0,30.03,NNW,340,9.0,16.0,75,-99.99,,,-99.99,,2013-10-23 03:22:00,
2013-10-22 22:55:00,41.0,34.0,30.04,NNW,330,9.0,-999.0,75,-99.99,,,-99.99,,2013-10-23 03:55:00,
2013-10-22 23:14:00,41.0,34.0,30.04,NNW,330,10.0,-999.0,75,-99.99,,,-99.99,,2013-10-23 04:14:00,
2013-10-22 23:24:00,41.0,34.0,30.03,NNW,340,8.0,-999.0,75,-99.99,,,-99.99,,2013-10-23 04:24:00,
2013-10-22 23:55:00,41.0,36.0,30.04,NW,320,8.0,-999.0,80,-99.99,,,-99.99,,2013-10-23 04:55:00,